sensor_id;sensor_type;location;lat;lon;timestamp;P1;durP1;ratioP1;P2;durP2;ratioP2
8478;SDS011;4276;49.354;6.804;2022-08-19T00:01:37;14.07;;;13.07;;
8478;SDS011;4276;49.354;6.804;2022-08-19T00:04:06;15.02;;;13.82;;
8478;SDS011;4276;49.354;6.804;2022-08-19T00:06:35;13.93;;;12.82;;
8478;SDS011;4276;49.354;6.804;2022-08-19T00:09:03;15.13;;;14.02;;
8478;SDS011;4276;49.354;6.804;2022-08-19T00:11:31;13.48;;;12.38;;
8478;SDS011;4276;49.354;6.804;2022-08-19T00:13:58;13.98;;;12.90;;
8478;SDS011;4276;49.354;6.804;2022-08-19T00:16:25;13.60;;;12.68;;
8478;SDS011;4276;49.354;6.804;2022-08-19T00:18:52;14.63;;;13.63;;
8478;SDS011;4276;49.354;6.804;2022-08-19T00:21:21;13.45;;;12.55;;
8478;SDS011;4276;49.354;6.804;2022-08-19T00:23:49;43.40;;;17.85;;
8478;SDS011;4276;49.354;6.804;2022-08-19T00:26:15;14.23;;;13.15;;
8478;SDS011;4276;49.354;6.804;2022-08-19T00:28:42;2.60;;;2.42;;
8478;SDS011;4276;49.354;6.804;2022-08-19T00:31:08;13.68;;;12.68;;
8478;SDS011;4276;49.354;6.804;2022-08-19T00:33:35;13.98;;;12.95;;
8478;SDS011;4276;49.354;6.804;2022-08-19T00:36:03;13.82;;;12.73;;
8478;SDS011;4276;49.354;6.804;2022-08-19T00:38:33;13.88;;;12.98;;
8478;SDS011;4276;49.354;6.804;2022-08-19T00:41:03;14.07;;;13.07;;
8478;SDS011;4276;49.354;6.804;2022-08-19T00:43:31;13.60;;;12.48;;
8478;SDS011;4276;49.354;6.804;2022-08-19T00:45:58;14.32;;;13.23;;
8478;SDS011;4276;49.354;6.804;2022-08-19T00:48:24;13.57;;;12.57;;
8478;SDS011;4276;49.354;6.804;2022-08-19T00:50:51;13.73;;;12.70;;
8478;SDS011;4276;49.354;6.804;2022-08-19T00:53:20;13.93;;;12.85;;
8478;SDS011;4276;49.354;6.804;2022-08-19T00:55:50;13.13;;;12.23;;
8478;SDS011;4276;49.354;6.804;2022-08-19T00:58:19;13.75;;;12.70;;
8478;SDS011;4276;49.354;6.804;2022-08-19T01:00:47;13.32;;;12.32;;
8478;SDS011;4276;49.354;6.804;2022-08-19T01:03:16;13.75;;;12.75;;
8478;SDS011;4276;49.354;6.804;2022-08-19T01:05:45;13.25;;;12.18;;
8478;SDS011;4276;49.354;6.804;2022-08-19T01:08:12;13.27;;;12.35;;
8478;SDS011;4276;49.354;6.804;2022-08-19T01:10:45;12.77;;;11.88;;
8478;SDS011;4276;49.354;6.804;2022-08-19T01:13:17;12.02;;;11.23;;
8478;SDS011;4276;49.354;6.804;2022-08-19T01:15:50;12.13;;;11.30;;
8478;SDS011;4276;49.354;6.804;2022-08-19T01:18:19;11.38;;;10.40;;
8478;SDS011;4276;49.354;6.804;2022-08-19T01:20:47;11.30;;;10.60;;
8478;SDS011;4276;49.354;6.804;2022-08-19T01:23:14;10.50;;;9.80;;
8478;SDS011;4276;49.354;6.804;2022-08-19T01:25:43;11.43;;;10.52;;
8478;SDS011;4276;49.354;6.804;2022-08-19T01:28:22;11.13;;;10.32;;
8478;SDS011;4276;49.354;6.804;2022-08-19T01:31:05;10.80;;;10.00;;
8478;SDS011;4276;49.354;6.804;2022-08-19T01:33:33;11.43;;;10.57;;
8478;SDS011;4276;49.354;6.804;2022-08-19T01:36:08;10.85;;;10.15;;
8478;SDS011;4276;49.354;6.804;2022-08-19T01:38:41;11.20;;;10.50;;
8478;SDS011;4276;49.354;6.804;2022-08-19T01:41:10;10.85;;;10.05;;
8478;SDS011;4276;49.354;6.804;2022-08-19T01:43:37;12.02;;;11.23;;
8478;SDS011;4276;49.354;6.804;2022-08-19T01:46:24;12.20;;;11.18;;
8478;SDS011;4276;49.354;6.804;2022-08-19T01:48:51;12.40;;;11.52;;
8478;SDS011;4276;49.354;6.804;2022-08-19T01:51:17;15.23;;;14.23;;
8478;SDS011;4276;49.354;6.804;2022-08-19T01:53:46;14.75;;;13.65;;
8478;SDS011;4276;49.354;6.804;2022-08-19T01:56:14;15.23;;;14.18;;
8478;SDS011;4276;49.354;6.804;2022-08-19T01:58:42;13.68;;;12.77;;
8478;SDS011;4276;49.354;6.804;2022-08-19T02:01:14;15.25;;;14.15;;
8478;SDS011;4276;49.354;6.804;2022-08-19T02:03:41;15.57;;;14.48;;
8478;SDS011;4276;49.354;6.804;2022-08-19T02:06:08;15.05;;;13.85;;
8478;SDS011;4276;49.354;6.804;2022-08-19T02:08:36;14.93;;;13.85;;
8478;SDS011;4276;49.354;6.804;2022-08-19T02:11:04;14.40;;;13.30;;
8478;SDS011;4276;49.354;6.804;2022-08-19T02:13:31;15.50;;;14.40;;
8478;SDS011;4276;49.354;6.804;2022-08-19T02:15:58;15.15;;;14.00;;
8478;SDS011;4276;49.354;6.804;2022-08-19T02:18:29;14.50;;;13.43;;
8478;SDS011;4276;49.354;6.804;2022-08-19T02:20:56;13.43;;;12.43;;
8478;SDS011;4276;49.354;6.804;2022-08-19T02:23:22;13.40;;;12.40;;
8478;SDS011;4276;49.354;6.804;2022-08-19T02:25:49;13.88;;;12.88;;
8478;SDS011;4276;49.354;6.804;2022-08-19T02:28:17;13.30;;;12.27;;
8478;SDS011;4276;49.354;6.804;2022-08-19T02:30:44;13.40;;;12.50;;
8478;SDS011;4276;49.354;6.804;2022-08-19T02:33:11;14.27;;;13.18;;
8478;SDS011;4276;49.354;6.804;2022-08-19T02:35:40;14.40;;;13.27;;
8478;SDS011;4276;49.354;6.804;2022-08-19T02:38:10;14.00;;;12.93;;
8478;SDS011;4276;49.354;6.804;2022-08-19T02:40:59;14.30;;;13.07;;
8478;SDS011;4276;49.354;6.804;2022-08-19T02:43:27;13.05;;;12.13;;
8478;SDS011;4276;49.354;6.804;2022-08-19T02:45:59;14.48;;;13.40;;
8478;SDS011;4276;49.354;6.804;2022-08-19T02:48:26;13.80;;;12.82;;
8478;SDS011;4276;49.354;6.804;2022-08-19T02:50:53;13.25;;;12.35;;
8478;SDS011;4276;49.354;6.804;2022-08-19T02:53:23;14.43;;;13.35;;
8478;SDS011;4276;49.354;6.804;2022-08-19T02:55:51;13.55;;;12.55;;
8478;SDS011;4276;49.354;6.804;2022-08-19T02:58:18;13.88;;;12.77;;
8478;SDS011;4276;49.354;6.804;2022-08-19T03:00:46;14.00;;;13.00;;
8478;SDS011;4276;49.354;6.804;2022-08-19T03:03:15;13.65;;;12.65;;
8478;SDS011;4276;49.354;6.804;2022-08-19T03:05:43;12.75;;;11.80;;
8478;SDS011;4276;49.354;6.804;2022-08-19T03:08:21;12.75;;;11.85;;
8478;SDS011;4276;49.354;6.804;2022-08-19T03:10:48;13.00;;;12.10;;
8478;SDS011;4276;49.354;6.804;2022-08-19T03:13:16;13.77;;;12.80;;
8478;SDS011;4276;49.354;6.804;2022-08-19T03:15:45;13.15;;;12.15;;
8478;SDS011;4276;49.354;6.804;2022-08-19T03:18:12;13.88;;;12.80;;
8478;SDS011;4276;49.354;6.804;2022-08-19T03:20:41;14.43;;;13.32;;
8478;SDS011;4276;49.354;6.804;2022-08-19T03:23:16;14.25;;;13.25;;
8478;SDS011;4276;49.354;6.804;2022-08-19T03:25:47;14.35;;;13.35;;
8478;SDS011;4276;49.354;6.804;2022-08-19T03:28:34;14.07;;;13.07;;
8478;SDS011;4276;49.354;6.804;2022-08-19T03:31:02;13.93;;;12.93;;
8478;SDS011;4276;49.354;6.804;2022-08-19T03:33:53;12.88;;;11.82;;
8478;SDS011;4276;49.354;6.804;2022-08-19T03:36:21;14.27;;;13.27;;
8478;SDS011;4276;49.354;6.804;2022-08-19T03:38:53;13.35;;;12.35;;
8478;SDS011;4276;49.354;6.804;2022-08-19T03:41:29;12.95;;;12.05;;
8478;SDS011;4276;49.354;6.804;2022-08-19T03:44:11;13.43;;;12.50;;
8478;SDS011;4276;49.354;6.804;2022-08-19T03:46:44;13.07;;;12.13;;
8478;SDS011;4276;49.354;6.804;2022-08-19T03:49:15;12.68;;;11.85;;
8478;SDS011;4276;49.354;6.804;2022-08-19T03:51:43;13.18;;;12.27;;
8478;SDS011;4276;49.354;6.804;2022-08-19T03:54:11;13.38;;;12.48;;
8478;SDS011;4276;49.354;6.804;2022-08-19T03:56:39;13.15;;;12.13;;
8478;SDS011;4276;49.354;6.804;2022-08-19T03:59:08;12.55;;;11.63;;
8478;SDS011;4276;49.354;6.804;2022-08-19T04:01:39;13.90;;;12.80;;
8478;SDS011;4276;49.354;6.804;2022-08-19T04:04:06;12.98;;;12.07;;
8478;SDS011;4276;49.354;6.804;2022-08-19T04:06:35;13.05;;;12.15;;
8478;SDS011;4276;49.354;6.804;2022-08-19T04:09:06;12.70;;;11.45;;
8478;SDS011;4276;49.354;6.804;2022-08-19T04:11:36;12.90;;;12.00;;
8478;SDS011;4276;49.354;6.804;2022-08-19T04:14:10;12.63;;;11.73;;
8478;SDS011;4276;49.354;6.804;2022-08-19T04:16:38;13.13;;;12.23;;
8478;SDS011;4276;49.354;6.804;2022-08-19T04:19:05;13.48;;;12.48;;
8478;SDS011;4276;49.354;6.804;2022-08-19T04:21:32;13.05;;;12.15;;
8478;SDS011;4276;49.354;6.804;2022-08-19T04:23:59;13.15;;;12.10;;
8478;SDS011;4276;49.354;6.804;2022-08-19T04:26:33;13.38;;;12.27;;
8478;SDS011;4276;49.354;6.804;2022-08-19T04:29:01;13.73;;;12.80;;
8478;SDS011;4276;49.354;6.804;2022-08-19T04:31:37;13.07;;;12.20;;
8478;SDS011;4276;49.354;6.804;2022-08-19T04:34:05;12.77;;;11.75;;
8478;SDS011;4276;49.354;6.804;2022-08-19T04:36:34;12.45;;;11.55;;
8478;SDS011;4276;49.354;6.804;2022-08-19T04:39:09;12.48;;;11.57;;
8478;SDS011;4276;49.354;6.804;2022-08-19T04:41:39;12.90;;;11.80;;
8478;SDS011;4276;49.354;6.804;2022-08-19T04:44:24;12.35;;;11.45;;
8478;SDS011;4276;49.354;6.804;2022-08-19T04:46:51;13.43;;;12.52;;
8478;SDS011;4276;49.354;6.804;2022-08-19T04:49:19;12.98;;;12.07;;
8478;SDS011;4276;49.354;6.804;2022-08-19T04:51:48;13.80;;;12.80;;
8478;SDS011;4276;49.354;6.804;2022-08-19T04:54:16;13.05;;;12.05;;
8478;SDS011;4276;49.354;6.804;2022-08-19T04:57:03;13.25;;;12.35;;
8478;SDS011;4276;49.354;6.804;2022-08-19T04:59:32;13.50;;;12.60;;
8478;SDS011;4276;49.354;6.804;2022-08-19T05:01:59;13.63;;;12.63;;
8478;SDS011;4276;49.354;6.804;2022-08-19T05:04:26;14.23;;;13.18;;
8478;SDS011;4276;49.354;6.804;2022-08-19T05:06:58;13.90;;;12.88;;
8478;SDS011;4276;49.354;6.804;2022-08-19T05:09:26;14.43;;;13.13;;
8478;SDS011;4276;49.354;6.804;2022-08-19T05:11:53;13.75;;;12.75;;
8478;SDS011;4276;49.354;6.804;2022-08-19T05:14:20;12.70;;;11.75;;
8478;SDS011;4276;49.354;6.804;2022-08-19T05:16:47;13.98;;;12.98;;
8478;SDS011;4276;49.354;6.804;2022-08-19T05:19:13;14.95;;;13.75;;
8478;SDS011;4276;49.354;6.804;2022-08-19T05:21:59;13.40;;;12.45;;
8478;SDS011;4276;49.354;6.804;2022-08-19T05:24:45;14.20;;;13.20;;
8478;SDS011;4276;49.354;6.804;2022-08-19T05:27:31;15.10;;;13.95;;
8478;SDS011;4276;49.354;6.804;2022-08-19T05:29:58;14.10;;;13.00;;
8478;SDS011;4276;49.354;6.804;2022-08-19T05:32:25;14.55;;;13.55;;
8478;SDS011;4276;49.354;6.804;2022-08-19T05:34:52;14.07;;;13.07;;
8478;SDS011;4276;49.354;6.804;2022-08-19T05:37:18;14.40;;;13.40;;
8478;SDS011;4276;49.354;6.804;2022-08-19T05:39:45;14.77;;;13.68;;
8478;SDS011;4276;49.354;6.804;2022-08-19T05:42:16;14.18;;;13.07;;
8478;SDS011;4276;49.354;6.804;2022-08-19T05:44:43;12.88;;;11.98;;
8478;SDS011;4276;49.354;6.804;2022-08-19T05:47:11;15.10;;;13.85;;
8478;SDS011;4276;49.354;6.804;2022-08-19T05:49:38;14.35;;;13.35;;
8478;SDS011;4276;49.354;6.804;2022-08-19T05:52:06;15.27;;;14.07;;
8478;SDS011;4276;49.354;6.804;2022-08-19T05:54:34;17.23;;;15.82;;
8478;SDS011;4276;49.354;6.804;2022-08-19T05:57:06;15.40;;;14.15;;
8478;SDS011;4276;49.354;6.804;2022-08-19T05:59:34;16.17;;;14.88;;
8478;SDS011;4276;49.354;6.804;2022-08-19T06:02:04;15.00;;;13.85;;
8478;SDS011;4276;49.354;6.804;2022-08-19T06:04:32;14.23;;;13.13;;
8478;SDS011;4276;49.354;6.804;2022-08-19T06:06:59;14.45;;;13.40;;
8478;SDS011;4276;49.354;6.804;2022-08-19T06:09:38;15.80;;;14.40;;
8478;SDS011;4276;49.354;6.804;2022-08-19T06:12:05;15.02;;;13.75;;
8478;SDS011;4276;49.354;6.804;2022-08-19T06:14:32;14.40;;;13.38;;
8478;SDS011;4276;49.354;6.804;2022-08-19T06:17:05;14.05;;;12.95;;
8478;SDS011;4276;49.354;6.804;2022-08-19T06:19:32;14.93;;;13.93;;
8478;SDS011;4276;49.354;6.804;2022-08-19T06:21:59;15.38;;;14.00;;
8478;SDS011;4276;49.354;6.804;2022-08-19T06:24:28;15.23;;;14.02;;
8478;SDS011;4276;49.354;6.804;2022-08-19T06:26:56;15.02;;;13.93;;
8478;SDS011;4276;49.354;6.804;2022-08-19T06:29:27;15.25;;;14.05;;
8478;SDS011;4276;49.354;6.804;2022-08-19T06:31:56;15.13;;;13.93;;
8478;SDS011;4276;49.354;6.804;2022-08-19T06:34:24;14.65;;;13.52;;
8478;SDS011;4276;49.354;6.804;2022-08-19T06:36:53;14.73;;;13.73;;
8478;SDS011;4276;49.354;6.804;2022-08-19T06:39:25;14.63;;;13.50;;
8478;SDS011;4276;49.354;6.804;2022-08-19T06:41:54;14.95;;;13.80;;
8478;SDS011;4276;49.354;6.804;2022-08-19T06:44:25;14.00;;;13.00;;
8478;SDS011;4276;49.354;6.804;2022-08-19T06:46:55;14.63;;;13.35;;
8478;SDS011;4276;49.354;6.804;2022-08-19T06:49:22;14.55;;;13.45;;
8478;SDS011;4276;49.354;6.804;2022-08-19T06:51:49;14.40;;;13.35;;
8478;SDS011;4276;49.354;6.804;2022-08-19T06:54:17;13.40;;;12.40;;
8478;SDS011;4276;49.354;6.804;2022-08-19T06:56:45;14.10;;;13.10;;
8478;SDS011;4276;49.354;6.804;2022-08-19T06:59:13;13.65;;;12.60;;
8478;SDS011;4276;49.354;6.804;2022-08-19T07:01:52;15.23;;;13.98;;
8478;SDS011;4276;49.354;6.804;2022-08-19T07:04:21;14.05;;;13.05;;
8478;SDS011;4276;49.354;6.804;2022-08-19T07:06:49;13.70;;;12.60;;
8478;SDS011;4276;49.354;6.804;2022-08-19T07:09:20;13.32;;;12.40;;
8478;SDS011;4276;49.354;6.804;2022-08-19T07:11:49;13.30;;;12.18;;
8478;SDS011;4276;49.354;6.804;2022-08-19T07:14:19;12.57;;;11.57;;
8478;SDS011;4276;49.354;6.804;2022-08-19T07:16:49;12.40;;;11.40;;
8478;SDS011;4276;49.354;6.804;2022-08-19T07:19:16;12.18;;;11.13;;
8478;SDS011;4276;49.354;6.804;2022-08-19T07:21:45;11.02;;;10.23;;
8478;SDS011;4276;49.354;6.804;2022-08-19T07:24:16;11.40;;;10.60;;
8478;SDS011;4276;49.354;6.804;2022-08-19T07:26:43;11.63;;;10.82;;
8478;SDS011;4276;49.354;6.804;2022-08-19T07:29:10;11.40;;;10.45;;
8478;SDS011;4276;49.354;6.804;2022-08-19T07:31:39;10.90;;;10.10;;
8478;SDS011;4276;49.354;6.804;2022-08-19T07:34:09;10.85;;;10.02;;
8478;SDS011;4276;49.354;6.804;2022-08-19T07:36:38;9.93;;;9.15;;
8478;SDS011;4276;49.354;6.804;2022-08-19T07:39:13;11.55;;;10.43;;
8478;SDS011;4276;49.354;6.804;2022-08-19T07:41:43;11.00;;;9.95;;
8478;SDS011;4276;49.354;6.804;2022-08-19T07:44:10;10.50;;;9.60;;
8478;SDS011;4276;49.354;6.804;2022-08-19T07:46:37;10.63;;;9.73;;
8478;SDS011;4276;49.354;6.804;2022-08-19T07:49:06;9.45;;;8.75;;
8478;SDS011;4276;49.354;6.804;2022-08-19T07:51:33;10.40;;;9.63;;
8478;SDS011;4276;49.354;6.804;2022-08-19T07:54:02;11.25;;;10.30;;
8478;SDS011;4276;49.354;6.804;2022-08-19T07:56:29;9.82;;;9.13;;
8478;SDS011;4276;49.354;6.804;2022-08-19T07:58:56;11.30;;;10.10;;
8478;SDS011;4276;49.354;6.804;2022-08-19T08:01:23;11.98;;;11.05;;
8478;SDS011;4276;49.354;6.804;2022-08-19T08:03:52;11.68;;;10.88;;
8478;SDS011;4276;49.354;6.804;2022-08-19T08:06:37;11.32;;;10.43;;
8478;SDS011;4276;49.354;6.804;2022-08-19T08:09:26;11.15;;;10.18;;
8478;SDS011;4276;49.354;6.804;2022-08-19T08:11:57;10.85;;;9.95;;
8478;SDS011;4276;49.354;6.804;2022-08-19T08:14:36;10.73;;;9.73;;
8478;SDS011;4276;49.354;6.804;2022-08-19T08:17:09;9.55;;;8.75;;
8478;SDS011;4276;49.354;6.804;2022-08-19T08:19:36;10.68;;;9.88;;
8478;SDS011;4276;49.354;6.804;2022-08-19T08:22:03;10.05;;;9.25;;
8478;SDS011;4276;49.354;6.804;2022-08-19T08:24:32;10.27;;;9.48;;
8478;SDS011;4276;49.354;6.804;2022-08-19T08:27:00;10.40;;;9.57;;
8478;SDS011;4276;49.354;6.804;2022-08-19T08:29:27;11.10;;;10.20;;
8478;SDS011;4276;49.354;6.804;2022-08-19T08:32:00;12.52;;;11.63;;
8478;SDS011;4276;49.354;6.804;2022-08-19T08:34:27;9.88;;;9.07;;
8478;SDS011;4276;49.354;6.804;2022-08-19T08:36:53;11.20;;;10.20;;
8478;SDS011;4276;49.354;6.804;2022-08-19T08:39:20;10.80;;;9.90;;
8478;SDS011;4276;49.354;6.804;2022-08-19T08:41:52;11.02;;;10.13;;
8478;SDS011;4276;49.354;6.804;2022-08-19T08:47:29;11.00;;;10.00;;
8478;SDS011;4276;49.354;6.804;2022-08-19T08:50:02;14.50;;;10.80;;
8478;SDS011;4276;49.354;6.804;2022-08-19T08:52:34;10.82;;;9.82;;
8478;SDS011;4276;49.354;6.804;2022-08-19T08:55:05;10.07;;;9.05;;
8478;SDS011;4276;49.354;6.804;2022-08-19T09:00:28;10.05;;;9.27;;
8478;SDS011;4276;49.354;6.804;2022-08-19T09:02:57;10.13;;;9.35;;
8478;SDS011;4276;49.354;6.804;2022-08-19T09:05:29;10.27;;;9.48;;
8478;SDS011;4276;49.354;6.804;2022-08-19T09:08:17;10.63;;;9.82;;
8478;SDS011;4276;49.354;6.804;2022-08-19T09:11:06;10.30;;;9.40;;
8478;SDS011;4276;49.354;6.804;2022-08-19T09:16:15;10.38;;;9.57;;
8478;SDS011;4276;49.354;6.804;2022-08-19T09:18:56;10.05;;;9.35;;
8478;SDS011;4276;49.354;6.804;2022-08-19T09:21:27;10.18;;;9.20;;
8478;SDS011;4276;49.354;6.804;2022-08-19T09:23:59;11.02;;;10.00;;
8478;SDS011;4276;49.354;6.804;2022-08-19T09:26:28;10.38;;;9.57;;
8478;SDS011;4276;49.354;6.804;2022-08-19T09:29:13;9.65;;;9.05;;
8478;SDS011;4276;49.354;6.804;2022-08-19T09:31:40;10.55;;;9.75;;
8478;SDS011;4276;49.354;6.804;2022-08-19T09:34:07;9.80;;;9.02;;
8478;SDS011;4276;49.354;6.804;2022-08-19T09:36:46;22.08;;;10.57;;
8478;SDS011;4276;49.354;6.804;2022-08-19T09:39:13;9.32;;;8.73;;
8478;SDS011;4276;49.354;6.804;2022-08-19T09:41:41;7.93;;;7.43;;
8478;SDS011;4276;49.354;6.804;2022-08-19T09:44:14;8.15;;;7.45;;
8478;SDS011;4276;49.354;6.804;2022-08-19T09:46:40;8.20;;;7.60;;
8478;SDS011;4276;49.354;6.804;2022-08-19T09:49:07;8.32;;;7.72;;
8478;SDS011;4276;49.354;6.804;2022-08-19T09:51:33;9.18;;;8.48;;
8478;SDS011;4276;49.354;6.804;2022-08-19T09:54:03;8.02;;;7.43;;
8478;SDS011;4276;49.354;6.804;2022-08-19T09:56:30;10.00;;;8.43;;
8478;SDS011;4276;49.354;6.804;2022-08-19T09:58:59;7.38;;;6.78;;
8478;SDS011;4276;49.354;6.804;2022-08-19T10:01:27;7.80;;;7.22;;
8478;SDS011;4276;49.354;6.804;2022-08-19T10:03:55;7.15;;;6.72;;
8478;SDS011;4276;49.354;6.804;2022-08-19T10:06:23;8.48;;;7.85;;
8478;SDS011;4276;49.354;6.804;2022-08-19T10:09:11;9.38;;;7.38;;
8478;SDS011;4276;49.354;6.804;2022-08-19T10:11:41;7.38;;;6.88;;
8478;SDS011;4276;49.354;6.804;2022-08-19T10:14:19;7.47;;;6.97;;
8478;SDS011;4276;49.354;6.804;2022-08-19T10:16:48;10.10;;;9.40;;
8478;SDS011;4276;49.354;6.804;2022-08-19T10:19:18;11.15;;;10.35;;
8478;SDS011;4276;49.354;6.804;2022-08-19T10:21:51;9.60;;;8.80;;
8478;SDS011;4276;49.354;6.804;2022-08-19T10:24:18;8.00;;;7.43;;
8478;SDS011;4276;49.354;6.804;2022-08-19T10:26:46;7.78;;;7.18;;
8478;SDS011;4276;49.354;6.804;2022-08-19T10:29:24;7.22;;;6.63;;
8478;SDS011;4276;49.354;6.804;2022-08-19T10:31:59;6.55;;;6.15;;
8478;SDS011;4276;49.354;6.804;2022-08-19T10:34:28;6.10;;;5.70;;
8478;SDS011;4276;49.354;6.804;2022-08-19T10:36:56;6.05;;;5.55;;
8478;SDS011;4276;49.354;6.804;2022-08-19T10:39:27;6.03;;;5.63;;
8478;SDS011;4276;49.354;6.804;2022-08-19T10:41:56;6.20;;;5.70;;
8478;SDS011;4276;49.354;6.804;2022-08-19T10:44:23;5.97;;;5.57;;
8478;SDS011;4276;49.354;6.804;2022-08-19T10:46:57;7.00;;;6.50;;
8478;SDS011;4276;49.354;6.804;2022-08-19T10:49:25;6.97;;;6.38;;
8478;SDS011;4276;49.354;6.804;2022-08-19T10:51:53;6.10;;;5.70;;
8478;SDS011;4276;49.354;6.804;2022-08-19T10:55:02;6.28;;;5.80;;
8478;SDS011;4276;49.354;6.804;2022-08-19T10:57:48;5.47;;;5.07;;
8478;SDS011;4276;49.354;6.804;2022-08-19T11:00:27;5.35;;;5.03;;
8478;SDS011;4276;49.354;6.804;2022-08-19T11:02:55;5.95;;;5.45;;
8478;SDS011;4276;49.354;6.804;2022-08-19T11:05:21;5.75;;;5.40;;
8478;SDS011;4276;49.354;6.804;2022-08-19T11:07:49;5.72;;;5.32;;
8478;SDS011;4276;49.354;6.804;2022-08-19T11:10:18;5.35;;;4.95;;
8478;SDS011;4276;49.354;6.804;2022-08-19T11:12:47;6.65;;;6.15;;
8478;SDS011;4276;49.354;6.804;2022-08-19T11:15:14;5.68;;;5.28;;
8478;SDS011;4276;49.354;6.804;2022-08-19T11:17:41;6.55;;;6.07;;
8478;SDS011;4276;49.354;6.804;2022-08-19T11:20:10;6.90;;;6.30;;
8478;SDS011;4276;49.354;6.804;2022-08-19T11:22:38;7.82;;;7.13;;
8478;SDS011;4276;49.354;6.804;2022-08-19T11:25:08;6.60;;;6.10;;
8478;SDS011;4276;49.354;6.804;2022-08-19T11:27:41;6.75;;;6.25;;
8478;SDS011;4276;49.354;6.804;2022-08-19T11:30:11;7.35;;;6.78;;
8478;SDS011;4276;49.354;6.804;2022-08-19T11:32:39;6.88;;;6.40;;
8478;SDS011;4276;49.354;6.804;2022-08-19T11:35:12;6.82;;;6.22;;
8478;SDS011;4276;49.354;6.804;2022-08-19T11:37:38;7.28;;;6.78;;
8478;SDS011;4276;49.354;6.804;2022-08-19T11:40:05;8.32;;;7.63;;
8478;SDS011;4276;49.354;6.804;2022-08-19T11:42:33;8.32;;;7.47;;
8478;SDS011;4276;49.354;6.804;2022-08-19T11:45:18;8.18;;;7.57;;
8478;SDS011;4276;49.354;6.804;2022-08-19T11:47:44;8.02;;;7.43;;
8478;SDS011;4276;49.354;6.804;2022-08-19T11:50:12;8.38;;;7.28;;
8478;SDS011;4276;49.354;6.804;2022-08-19T11:52:39;8.68;;;8.07;;
8478;SDS011;4276;49.354;6.804;2022-08-19T11:55:06;8.57;;;7.88;;
8478;SDS011;4276;49.354;6.804;2022-08-19T11:57:33;8.80;;;8.05;;
8478;SDS011;4276;49.354;6.804;2022-08-19T11:59:59;9.55;;;8.65;;
8478;SDS011;4276;49.354;6.804;2022-08-19T12:02:27;10.30;;;9.40;;
8478;SDS011;4276;49.354;6.804;2022-08-19T12:04:54;9.55;;;8.65;;
8478;SDS011;4276;49.354;6.804;2022-08-19T12:07:20;10.40;;;8.65;;
8478;SDS011;4276;49.354;6.804;2022-08-19T12:09:47;9.77;;;9.10;;
8478;SDS011;4276;49.354;6.804;2022-08-19T12:12:14;9.10;;;8.40;;
8478;SDS011;4276;49.354;6.804;2022-08-19T12:14:40;9.10;;;8.40;;
8478;SDS011;4276;49.354;6.804;2022-08-19T12:17:07;9.00;;;8.10;;
8478;SDS011;4276;49.354;6.804;2022-08-19T12:19:36;8.63;;;7.93;;
8478;SDS011;4276;49.354;6.804;2022-08-19T12:22:03;7.45;;;6.88;;
8478;SDS011;4276;49.354;6.804;2022-08-19T12:24:30;9.15;;;8.18;;
8478;SDS011;4276;49.354;6.804;2022-08-19T12:26:58;8.43;;;7.60;;
8478;SDS011;4276;49.354;6.804;2022-08-19T12:29:28;8.15;;;7.30;;
8478;SDS011;4276;49.354;6.804;2022-08-19T12:31:56;9.63;;;7.85;;
8478;SDS011;4276;49.354;6.804;2022-08-19T12:34:31;9.13;;;8.20;;
8478;SDS011;4276;49.354;6.804;2022-08-19T12:36:58;8.38;;;7.78;;
8478;SDS011;4276;49.354;6.804;2022-08-19T12:39:33;9.15;;;8.55;;
8478;SDS011;4276;49.354;6.804;2022-08-19T12:42:10;8.50;;;7.80;;
8478;SDS011;4276;49.354;6.804;2022-08-19T12:44:38;8.40;;;7.70;;
8478;SDS011;4276;49.354;6.804;2022-08-19T12:47:08;8.05;;;7.45;;
8478;SDS011;4276;49.354;6.804;2022-08-19T12:49:36;8.68;;;7.97;;
8478;SDS011;4276;49.354;6.804;2022-08-19T12:52:19;8.48;;;7.63;;
8478;SDS011;4276;49.354;6.804;2022-08-19T12:54:48;9.07;;;7.90;;
8478;SDS011;4276;49.354;6.804;2022-08-19T12:57:20;7.88;;;6.97;;
8478;SDS011;4276;49.354;6.804;2022-08-19T12:59:51;8.55;;;7.75;;
8478;SDS011;4276;49.354;6.804;2022-08-19T13:02:19;8.23;;;7.50;;
8478;SDS011;4276;49.354;6.804;2022-08-19T13:04:46;8.20;;;7.50;;
8478;SDS011;4276;49.354;6.804;2022-08-19T13:07:13;7.88;;;7.18;;
8478;SDS011;4276;49.354;6.804;2022-08-19T13:09:40;8.02;;;7.32;;
8478;SDS011;4276;49.354;6.804;2022-08-19T13:12:08;7.28;;;6.60;;
8478;SDS011;4276;49.354;6.804;2022-08-19T13:14:39;8.00;;;7.30;;
8478;SDS011;4276;49.354;6.804;2022-08-19T13:17:06;6.93;;;6.22;;
8478;SDS011;4276;49.354;6.804;2022-08-19T13:19:33;6.63;;;6.13;;
8478;SDS011;4276;49.354;6.804;2022-08-19T13:22:02;6.85;;;6.25;;
8478;SDS011;4276;49.354;6.804;2022-08-19T13:24:29;6.72;;;6.07;;
8478;SDS011;4276;49.354;6.804;2022-08-19T13:26:59;6.80;;;6.30;;
8478;SDS011;4276;49.354;6.804;2022-08-19T13:29:26;6.40;;;5.80;;
8478;SDS011;4276;49.354;6.804;2022-08-19T13:32:11;6.53;;;6.00;;
8478;SDS011;4276;49.354;6.804;2022-08-19T13:34:57;6.30;;;5.65;;
8478;SDS011;4276;49.354;6.804;2022-08-19T13:37:23;5.95;;;5.55;;
8478;SDS011;4276;49.354;6.804;2022-08-19T13:40:08;5.03;;;4.63;;
8478;SDS011;4276;49.354;6.804;2022-08-19T13:42:43;4.72;;;4.40;;
8478;SDS011;4276;49.354;6.804;2022-08-19T13:45:13;5.25;;;4.80;;
8478;SDS011;4276;49.354;6.804;2022-08-19T13:47:41;5.30;;;4.93;;
8478;SDS011;4276;49.354;6.804;2022-08-19T13:50:11;4.70;;;4.40;;
8478;SDS011;4276;49.354;6.804;2022-08-19T13:52:39;4.88;;;4.28;;
8478;SDS011;4276;49.354;6.804;2022-08-19T13:55:07;4.80;;;4.50;;
8478;SDS011;4276;49.354;6.804;2022-08-19T13:57:34;4.35;;;4.05;;
8478;SDS011;4276;49.354;6.804;2022-08-19T14:00:02;4.30;;;3.92;;
8478;SDS011;4276;49.354;6.804;2022-08-19T14:02:30;4.43;;;4.03;;
8478;SDS011;4276;49.354;6.804;2022-08-19T14:04:56;4.10;;;3.80;;
8478;SDS011;4276;49.354;6.804;2022-08-19T14:07:24;3.75;;;3.47;;
8478;SDS011;4276;49.354;6.804;2022-08-19T14:09:51;3.83;;;3.53;;
8478;SDS011;4276;49.354;6.804;2022-08-19T14:12:20;4.35;;;3.75;;
8478;SDS011;4276;49.354;6.804;2022-08-19T14:14:54;3.70;;;3.40;;
8478;SDS011;4276;49.354;6.804;2022-08-19T14:17:20;3.63;;;3.28;;
8478;SDS011;4276;49.354;6.804;2022-08-19T14:19:47;3.38;;;3.17;;
8478;SDS011;4276;49.354;6.804;2022-08-19T14:22:14;3.55;;;3.25;;
8478;SDS011;4276;49.354;6.804;2022-08-19T14:24:47;3.90;;;3.58;;
8478;SDS011;4276;49.354;6.804;2022-08-19T14:27:14;3.20;;;3.00;;
8478;SDS011;4276;49.354;6.804;2022-08-19T14:29:40;3.17;;;2.97;;
8478;SDS011;4276;49.354;6.804;2022-08-19T14:32:07;2.70;;;2.60;;
8478;SDS011;4276;49.354;6.804;2022-08-19T14:34:38;3.05;;;2.78;;
8478;SDS011;4276;49.354;6.804;2022-08-19T14:37:04;3.40;;;3.20;;
8478;SDS011;4276;49.354;6.804;2022-08-19T14:39:32;3.08;;;2.88;;
8478;SDS011;4276;49.354;6.804;2022-08-19T14:41:58;3.90;;;3.60;;
8478;SDS011;4276;49.354;6.804;2022-08-19T14:44:25;3.70;;;2.90;;
8478;SDS011;4276;49.354;6.804;2022-08-19T14:46:52;3.25;;;3.05;;
8478;SDS011;4276;49.354;6.804;2022-08-19T14:49:19;3.83;;;3.53;;
8478;SDS011;4276;49.354;6.804;2022-08-19T14:51:57;3.28;;;3.08;;
8478;SDS011;4276;49.354;6.804;2022-08-19T14:54:23;4.13;;;3.60;;
8478;SDS011;4276;49.354;6.804;2022-08-19T14:56:52;4.15;;;3.63;;
8478;SDS011;4276;49.354;6.804;2022-08-19T14:59:18;5.55;;;4.18;;
8478;SDS011;4276;49.354;6.804;2022-08-19T15:01:45;4.85;;;4.43;;
8478;SDS011;4276;49.354;6.804;2022-08-19T15:04:12;5.22;;;4.22;;
8478;SDS011;4276;49.354;6.804;2022-08-19T15:06:39;5.30;;;4.65;;
8478;SDS011;4276;49.354;6.804;2022-08-19T15:09:05;4.10;;;3.88;;
8478;SDS011;4276;49.354;6.804;2022-08-19T15:11:32;5.10;;;4.60;;
8478;SDS011;4276;49.354;6.804;2022-08-19T15:13:58;5.03;;;4.60;;
8478;SDS011;4276;49.354;6.804;2022-08-19T15:16:26;5.20;;;4.70;;
8478;SDS011;4276;49.354;6.804;2022-08-19T15:18:56;4.53;;;4.22;;
8478;SDS011;4276;49.354;6.804;2022-08-19T15:21:25;4.75;;;4.45;;
8478;SDS011;4276;49.354;6.804;2022-08-19T15:23:53;5.10;;;4.70;;
8478;SDS011;4276;49.354;6.804;2022-08-19T15:26:21;4.80;;;4.50;;